Time;durP1;ratioP1;P1;durP2;ratioP2;P2;SDS_P1;SDS_P2;PMS_P1;PMS_P2;Temp;Humidity;BMP_temperature;BMP_pressure;BME280_temperature;BME280_humidity;BME280_pressure;Samples;Min_cycle;Max_cycle;Signal;HPM_P1;HPM_P2
2024/04/04 00:00:45;;;;;;;7.40;3.03;;;9.90;99.90;;;;;;4161777;28;20041;-59
2024/04/04 00:02:46;;;;;;;6.40;3.13;;;9.90;99.90;;;;;;4159527;28;20146;-58
2024/04/04 00:04:58;;;;;;;6.43;2.57;;;9.90;99.90;;;;;;4159474;28;20083;-59
2024/04/04 00:07:00;;;;;;;5.53;3.03;;;9.80;99.90;;;;;;4156023;28;20088;-58
2024/04/04 00:09:01;;;;;;;7.57;2.50;;;9.80;99.90;;;;;;4160956;28;20049;-59
2024/04/04 00:11:13;;;;;;;6.30;2.90;;;9.80;99.90;;;;;;4159386;28;20045;-57
2024/04/04 00:13:14;;;;;;;4.77;2.13;;;9.80;99.90;;;;;;4161474;28;20485;-54
2024/04/04 00:15:15;;;;;;;5.93;2.10;;;9.70;99.90;;;;;;4160817;28;20141;-56
2024/04/04 00:17:17;;;;;;;5.37;2.30;;;9.70;99.90;;;;;;4160471;28;20037;-59
2024/04/04 00:19:18;;;;;;;5.37;2.43;;;9.70;99.90;;;;;;4160322;28;20029;-58
2024/04/04 00:21:19;;;;;;;4.77;2.30;;;9.80;99.90;;;;;;4161114;28;20075;-57
2024/04/04 00:23:20;;;;;;;6.13;2.43;;;9.80;99.90;;;;;;4160560;28;20072;-56
2024/04/04 00:25:22;;;;;;;8.53;2.90;;;9.80;99.90;;;;;;4162034;28;20481;-59
2024/04/04 00:27:23;;;;;;;7.53;2.50;;;9.90;99.90;;;;;;4161694;28;20079;-60
2024/04/04 00:29:24;;;;;;;4.23;2.57;;;9.80;99.90;;;;;;4158779;28;20057;-59
2024/04/04 00:31:26;;;;;;;4.93;2.97;;;9.70;99.90;;;;;;4160483;28;20034;-59
2024/04/04 00:33:27;;;;;;;3.50;2.13;;;9.70;99.90;;;;;;4159488;28;20041;-57
2024/04/04 00:35:28;;;;;;;7.47;2.43;;;9.70;99.90;;;;;;4160682;28;20111;-56
2024/04/04 00:37:30;;;;;;;4.90;2.10;;;9.70;99.90;;;;;;4159318;28;20143;-56
2024/04/04 00:39:31;;;;;;;5.30;2.60;;;9.70;99.90;;;;;;4162752;28;20083;-54
2024/04/04 00:41:32;;;;;;;6.33;2.80;;;9.70;99.90;;;;;;4161883;28;20049;-59
2024/04/04 00:43:34;;;;;;;6.57;2.63;;;9.70;99.90;;;;;;4160654;28;20049;-60
2024/04/04 00:45:36;;;;;;;4.23;2.53;;;9.70;99.90;;;;;;4158925;28;20037;-56
2024/04/04 00:47:38;;;;;;;4.93;2.30;;;9.80;99.90;;;;;;4159237;28;20099;-60
2024/04/04 00:49:39;;;;;;;5.30;2.30;;;9.90;99.90;;;;;;4162241;28;20095;-59
2024/04/04 00:51:40;;;;;;;3.53;1.80;;;9.90;99.90;;;;;;4160868;28;20481;-57
2024/04/04 00:53:42;;;;;;;3.17;1.80;;;9.90;99.90;;;;;;4161018;28;20025;-58
2024/04/04 00:55:48;;;;;;;4.23;2.00;;;10.00;99.90;;;;;;4162249;28;20423;-59
2024/04/04 00:57:51;;;;;;;6.53;1.80;;;10.00;99.90;;;;;;4161669;28;20474;-59
2024/04/04 00:59:54;;;;;;;6.07;2.10;;;10.10;99.90;;;;;;4161041;28;20045;-59
2024/04/04 01:01:55;;;;;;;3.93;2.40;;;10.10;99.90;;;;;;4162761;28;20091;-58
2024/04/04 01:03:56;;;;;;;3.47;1.90;;;10.10;99.90;;;;;;4161426;28;20053;-59
2024/04/04 01:05:57;;;;;;;4.03;2.47;;;10.10;99.90;;;;;;4162503;28;20037;-59
2024/04/04 01:07:59;;;;;;;4.33;2.63;;;10.10;99.90;;;;;;4159303;28;20025;-57
2024/04/04 01:10:07;;;;;;;7.57;3.80;;;10.20;99.90;;;;;;4162807;28;20026;-59
2024/04/04 01:12:09;;;;;;;11.33;3.30;;;10.20;99.90;;;;;;4161932;28;20049;-59
2024/04/04 01:14:11;;;;;;;9.37;2.83;;;10.20;99.90;;;;;;4162174;28;20083;-59
2024/04/04 01:16:12;;;;;;;5.67;2.20;;;10.10;99.90;;;;;;4161881;28;20444;-57
2024/04/04 01:18:13;;;;;;;7.80;2.70;;;10.00;99.90;;;;;;4162567;28;20477;-58
2024/04/04 01:20:14;;;;;;;3.97;2.10;;;10.00;99.90;;;;;;4160876;28;20509;-55
2024/04/04 01:22:16;;;;;;;12.60;5.53;;;9.90;99.90;;;;;;4161904;28;20029;-52
2024/04/04 01:24:17;;;;;;;19.27;4.37;;;9.90;99.90;;;;;;4159881;28;20095;-59
2024/04/04 01:26:18;;;;;;;7.80;4.03;;;9.90;99.90;;;;;;4161176;28;20033;-57
2024/04/04 01:28:20;;;;;;;7.67;3.10;;;9.80;99.90;;;;;;4160392;28;20095;-59
2024/04/04 01:30:21;;;;;;;8.37;3.17;;;9.80;99.90;;;;;;4159126;28;20174;-58
2024/04/04 01:32:22;;;;;;;6.63;4.13;;;9.90;99.90;;;;;;4159086;28;20107;-59
2024/04/04 01:34:23;;;;;;;8.60;3.20;;;9.90;99.90;;;;;;4158248;28;20134;-60
2024/04/04 01:36:25;;;;;;;7.20;3.33;;;9.90;99.90;;;;;;4161809;28;20064;-58
2024/04/04 01:38:27;;;;;;;5.63;2.63;;;10.00;99.90;;;;;;4161042;28;20535;-57
2024/04/04 01:40:29;;;;;;;6.40;2.43;;;10.10;99.90;;;;;;4162003;28;20490;-59
2024/04/04 01:42:30;;;;;;;4.80;1.60;;;10.10;99.90;;;;;;4161258;28;20123;-53
2024/04/04 01:44:32;;;;;;;5.67;1.37;;;10.20;99.90;;;;;;4161070;28;20466;-58
2024/04/04 01:46:33;;;;;;;5.13;1.20;;;10.20;99.90;;;;;;4160961;28;20059;-56
2024/04/04 01:48:34;;;;;;;3.83;1.50;;;10.20;99.90;;;;;;4160446;28;20057;-58
2024/04/04 01:50:35;;;;;;;2.30;1.37;;;10.30;99.90;;;;;;4160196;28;20080;-57
2024/04/04 01:52:37;;;;;;;2.93;1.50;;;10.30;99.90;;;;;;4159241;28;20041;-58
2024/04/04 01:54:38;;;;;;;3.40;1.50;;;10.30;99.90;;;;;;4158877;28;20103;-59
2024/04/04 01:56:39;;;;;;;2.50;1.70;;;10.40;99.90;;;;;;4158803;28;20088;-59
2024/04/04 01:58:41;;;;;;;3.60;2.10;;;10.30;99.90;;;;;;4158289;28;20042;-58
2024/04/04 02:00:42;;;;;;;4.67;2.07;;;10.40;99.90;;;;;;4158965;28;20460;-58
2024/04/04 02:02:43;;;;;;;3.03;2.00;;;10.40;99.90;;;;;;4159505;28;20030;-59
2024/04/04 02:04:44;;;;;;;4.27;1.43;;;10.40;99.90;;;;;;4159286;28;20033;-59
2024/04/04 02:06:46;;;;;;;8.23;1.90;;;10.40;99.90;;;;;;4162062;28;20079;-58
2024/04/04 02:08:47;;;;;;;4.77;1.17;;;10.50;99.90;;;;;;4159398;28;20057;-58
2024/04/04 02:10:48;;;;;;;4.17;1.23;;;10.50;99.90;;;;;;4159858;28;20025;-59
2024/04/04 02:12:50;;;;;;;4.97;1.67;;;10.50;99.90;;;;;;4159766;28;20030;-57
2024/04/04 02:14:51;;;;;;;3.30;1.07;;;10.60;99.90;;;;;;4159773;28;20087;-59
2024/04/04 02:16:53;;;;;;;2.27;1.30;;;10.60;99.90;;;;;;4160159;28;20041;-60
2024/04/04 02:18:55;;;;;;;3.07;1.00;;;10.60;99.90;;;;;;4161080;28;20048;-59
2024/04/04 02:20:56;;;;;;;1.47;0.90;;;10.70;99.90;;;;;;4160415;28;20025;-55
2024/04/04 02:22:58;;;;;;;2.07;0.80;;;10.80;99.90;;;;;;4160359;28;20053;-61
2024/04/04 02:24:59;;;;;;;2.03;0.77;;;10.80;99.90;;;;;;4159198;28;20519;-58
2024/04/04 02:27:01;;;;;;;2.53;1.00;;;10.80;99.90;;;;;;4158389;28;20084;-58
2024/04/04 02:29:02;;;;;;;2.33;0.97;;;10.80;99.90;;;;;;4159650;28;20037;-57
2024/04/04 02:31:03;;;;;;;1.13;0.60;;;10.90;99.90;;;;;;4158817;28;20045;-57
2024/04/04 02:33:05;;;;;;;1.33;0.60;;;10.90;99.90;;;;;;4159662;28;20037;-54
2024/04/04 02:35:07;;;;;;;1.80;0.63;;;10.90;99.90;;;;;;4158244;28;20080;-58
2024/04/04 02:37:08;;;;;;;2.23;1.03;;;11.00;99.90;;;;;;4158704;28;20079;-56
2024/04/04 02:39:13;;;;;;;1.10;0.70;;;11.00;99.90;;;;;;4158098;28;20092;-56
2024/04/04 02:41:15;;;;;;;3.57;0.60;;;11.00;99.90;;;;;;4158557;28;20119;-56
2024/04/04 02:43:17;;;;;;;3.97;0.80;;;11.00;99.90;;;;;;4158619;28;20041;-58
2024/04/04 02:45:18;;;;;;;3.13;0.47;;;11.00;99.90;;;;;;4157405;28;20115;-59
2024/04/04 02:47:19;;;;;;;2.73;0.83;;;11.00;99.90;;;;;;4158384;28;20033;-53
2024/04/04 02:49:21;;;;;;;1.33;0.50;;;11.00;99.90;;;;;;4158894;28;20041;-56
2024/04/04 02:51:22;;;;;;;2.20;0.53;;;11.00;99.90;;;;;;4157543;28;20088;-59
2024/04/04 02:53:24;;;;;;;2.77;0.70;;;11.00;99.90;;;;;;4158469;28;20037;-57
2024/04/04 02:55:27;;;;;;;1.90;0.40;;;11.00;99.90;;;;;;4143740;28;20030;-58
2024/04/04 02:57:28;;;;;;;3.47;0.60;;;10.90;99.90;;;;;;4147358;28;20084;-57
2024/04/04 02:59:29;;;;;;;1.57;1.33;;;10.90;99.90;;;;;;4158532;28;20168;-56
2024/04/04 03:01:30;;;;;;;1.80;0.67;;;10.90;99.90;;;;;;4157593;28;20098;-58
2024/04/04 03:03:32;;;;;;;1.87;0.50;;;10.90;99.90;;;;;;4158351;28;20190;-56
2024/04/04 03:05:38;;;;;;;1.13;0.40;;;10.80;99.90;;;;;;4157723;28;20029;-54
2024/04/04 03:07:39;;;;;;;1.77;0.70;;;10.70;99.90;;;;;;4159041;28;20427;-57
2024/04/04 03:09:41;;;;;;;2.33;0.70;;;10.70;99.90;;;;;;4159407;28;20046;-57
2024/04/04 03:11:42;;;;;;;1.43;0.40;;;10.70;99.90;;;;;;4161021;28;20037;-57
2024/04/04 03:13:43;;;;;;;2.13;0.60;;;10.60;99.90;;;;;;4157158;28;20963;-57
2024/04/04 03:15:58;;;;;;;2.17;0.50;;;10.60;99.90;;;;;;4158637;28;20033;-55
2024/04/04 03:18:01;;;;;;;1.60;0.50;;;10.50;99.90;;;;;;4155575;28;20425;-58
2024/04/04 03:20:02;;;;;;;2.10;0.57;;;10.50;99.90;;;;;;4159281;28;20425;-59
2024/04/04 03:22:03;;;;;;;0.77;0.30;;;10.50;99.90;;;;;;4158498;28;20421;-57
2024/04/04 03:24:05;;;;;;;2.10;0.40;;;10.40;99.90;;;;;;4160311;28;20112;-58
2024/04/04 03:26:06;;;;;;;0.57;0.40;;;10.30;99.90;;;;;;4157835;28;20056;-58
2024/04/04 03:28:08;;;;;;;4.73;0.53;;;10.30;99.90;;;;;;4158270;28;20452;-57
2024/04/04 03:30:09;;;;;;;7.23;4.23;;;10.30;99.90;;;;;;4155067;28;20096;-57
2024/04/04 03:32:10;;;;;;;7.73;4.27;;;10.30;99.90;;;;;;4160185;28;20050;-59
2024/04/04 03:34:12;;;;;;;4.97;2.17;;;10.20;99.90;;;;;;4160943;28;20100;-59
2024/04/04 03:36:13;;;;;;;3.00;0.90;;;10.30;99.90;;;;;;4163306;28;20037;-59
2024/04/04 03:38:14;;;;;;;3.83;1.33;;;10.30;99.90;;;;;;4158240;28;20048;-57
2024/04/04 03:40:16;;;;;;;2.70;0.77;;;10.30;99.90;;;;;;4160805;28;20091;-56
2024/04/04 03:42:17;;;;;;;2.87;0.53;;;10.20;99.90;;;;;;4161667;28;20095;-57
2024/04/04 03:44:18;;;;;;;2.50;0.40;;;10.20;99.90;;;;;;4160648;28;20095;-59
2024/04/04 03:46:19;;;;;;;1.77;0.50;;;10.30;99.90;;;;;;4163364;28;20053;-55
2024/04/04 03:48:20;;;;;;;3.13;0.70;;;10.30;99.90;;;;;;4159864;28;20041;-59
2024/04/04 03:50:22;;;;;;;2.77;0.80;;;10.30;99.90;;;;;;4162400;28;20087;-59
2024/04/04 03:52:23;;;;;;;2.70;0.70;;;10.30;99.90;;;;;;4159390;28;20440;-58
2024/04/04 03:54:24;;;;;;;5.30;0.57;;;10.20;99.90;;;;;;4162902;28;20579;-59
2024/04/04 03:56:25;;;;;;;2.70;0.47;;;10.20;99.90;;;;;;4162385;28;21331;-58
2024/04/04 03:58:27;;;;;;;1.50;0.50;;;10.10;99.90;;;;;;4160579;28;20119;-58
2024/04/04 04:00:29;;;;;;;3.20;0.73;;;10.00;99.90;;;;;;4161627;28;20041;-59
2024/04/04 04:02:30;;;;;;;1.07;0.63;;;10.00;99.90;;;;;;4163262;28;20436;-57
2024/04/04 04:04:31;;;;;;;4.90;0.70;;;10.00;99.90;;;;;;4162412;28;20836;-58
2024/04/04 04:06:32;;;;;;;3.73;0.67;;;10.00;99.90;;;;;;4163249;28;20033;-58
2024/04/04 04:08:34;;;;;;;4.60;0.83;;;9.90;99.90;;;;;;4162499;28;20485;-59
2024/04/04 04:10:35;;;;;;;1.50;0.70;;;9.90;99.90;;;;;;4162406;28;20119;-58
2024/04/04 04:12:36;;;;;;;4.87;0.90;;;9.90;99.90;;;;;;4163488;28;20045;-59
2024/04/04 04:14:38;;;;;;;4.03;2.00;;;9.80;99.90;;;;;;4161677;28;20037;-59
2024/04/04 04:16:39;;;;;;;2.93;1.00;;;9.80;99.90;;;;;;4163043;28;20103;-58
2024/04/04 04:18:41;;;;;;;8.73;1.90;;;9.80;99.90;;;;;;4161663;28;20041;-60
2024/04/04 04:23:02;;;;;;;4.87;1.20;;;9.90;99.90;;;;;;4162156;28;20045;-60
2024/04/04 04:25:03;;;;;;;3.77;1.20;;;9.90;99.90;;;;;;4163404;28;20041;-59
2024/04/04 04:27:04;;;;;;;2.03;1.07;;;9.90;99.90;;;;;;4161410;28;20041;-59
2024/04/04 04:29:06;;;;;;;4.23;2.27;;;10.00;99.90;;;;;;4163228;28;20056;-60
2024/04/04 04:31:30;;;;;;;7.03;2.17;;;10.00;99.90;;;;;;4161841;28;20050;-59
2024/04/04 04:33:31;;;;;;;4.53;1.70;;;10.10;99.90;;;;;;4163777;28;20075;-59
2024/04/04 04:35:33;;;;;;;3.00;1.63;;;10.10;99.90;;;;;;4162047;28;20091;-59
2024/04/04 04:37:34;;;;;;;4.67;2.60;;;10.10;99.90;;;;;;4162527;28;20084;-60
2024/04/04 04:39:35;;;;;;;2.77;2.13;;;10.10;99.90;;;;;;4161285;28;20042;-58
2024/04/04 04:41:36;;;;;;;4.10;1.90;;;10.10;99.90;;;;;;4163014;28;20370;-58
2024/04/04 04:43:38;;;;;;;4.77;1.80;;;10.20;99.90;;;;;;4162066;28;20046;-53
2024/04/04 04:45:39;;;;;;;8.33;2.33;;;10.20;99.90;;;;;;4161700;28;20095;-60
2024/04/04 04:47:40;;;;;;;7.63;2.27;;;10.10;99.90;;;;;;4162337;28;20064;-57
2024/04/04 04:49:41;;;;;;;3.57;1.63;;;10.10;99.90;;;;;;4161870;28;20567;-59
2024/04/04 04:51:43;;;;;;;4.07;2.17;;;10.00;99.90;;;;;;4160971;28;20433;-59
2024/04/04 04:53:44;;;;;;;4.47;2.33;;;10.00;99.90;;;;;;4161339;28;20055;-60
2024/04/04 04:55:49;;;;;;;5.63;2.00;;;10.00;99.90;;;;;;4161708;28;20042;-61
2024/04/04 04:57:50;;;;;;;4.10;1.90;;;9.90;99.90;;;;;;4161383;28;20045;-59
2024/04/04 04:59:51;;;;;;;2.90;2.03;;;9.90;99.90;;;;;;4162214;28;20091;-58
2024/04/04 05:01:54;;;;;;;2.47;1.73;;;9.90;99.90;;;;;;4161225;28;20440;-59
2024/04/04 05:03:55;;;;;;;2.47;1.23;;;10.00;99.90;;;;;;4162377;28;20049;-58
2024/04/04 05:05:56;;;;;;;3.50;1.23;;;10.00;99.90;;;;;;4160674;28;20413;-59
2024/04/04 05:07:57;;;;;;;4.70;1.10;;;10.00;99.90;;;;;;4161599;28;20045;-60
2024/04/04 05:09:59;;;;;;;1.13;0.67;;;9.90;99.90;;;;;;4161126;28;20951;-59
2024/04/04 05:12:00;;;;;;;3.93;2.70;;;9.90;99.90;;;;;;4162360;28;20091;-59
2024/04/04 05:14:01;;;;;;;5.67;1.97;;;10.00;99.90;;;;;;4161050;28;20091;-57
2024/04/04 05:16:03;;;;;;;6.20;2.67;;;10.10;99.90;;;;;;4161455;28;20096;-59
2024/04/04 05:18:04;;;;;;;7.23;1.93;;;10.10;99.90;;;;;;4161222;28;20060;-59
2024/04/04 05:20:06;;;;;;;3.97;1.70;;;10.10;99.90;;;;;;4161061;28;20095;-58
2024/04/04 05:22:07;;;;;;;3.30;1.83;;;10.20;99.90;;;;;;4161369;28;20041;-59
2024/04/04 05:24:08;;;;;;;14.97;5.10;;;10.30;99.90;;;;;;4160144;28;20041;-61
2024/04/04 05:26:12;;;;;;;42.57;18.13;;;10.30;99.90;;;;;;4161844;28;20030;-60
2024/04/04 05:28:13;;;;;;;15.90;6.83;;;10.30;99.90;;;;;;4161283;28;20087;-59
2024/04/04 05:30:14;;;;;;;9.50;4.57;;;10.30;99.90;;;;;;4162842;28;20147;-58
2024/04/04 05:32:16;;;;;;;14.23;6.07;;;10.30;99.90;;;;;;4161268;28;20052;-59
2024/04/04 05:34:17;;;;;;;12.80;4.73;;;10.30;99.90;;;;;;4162370;28;20022;-59
2024/04/04 05:36:18;;;;;;;8.63;4.07;;;10.40;99.90;;;;;;4161249;28;20351;-58
2024/04/04 05:38:20;;;;;;;7.80;3.37;;;10.50;99.90;;;;;;4161761;28;20456;-60
2024/04/04 05:40:23;;;;;;;8.37;2.80;;;10.50;99.90;;;;;;4160189;28;20071;-61
2024/04/04 05:42:28;;;;;;;8.77;2.77;;;10.50;99.90;;;;;;4159642;28;20049;-60
2024/04/04 05:44:29;;;;;;;4.70;1.90;;;10.60;99.90;;;;;;4156205;28;20059;-56
2024/04/04 05:46:30;;;;;;;5.90;2.13;;;10.60;99.90;;;;;;4155112;28;20096;-57
2024/04/04 05:48:32;;;;;;;4.23;1.60;;;10.70;99.90;;;;;;4154730;28;20075;-55
2024/04/04 05:50:36;;;;;;;3.63;1.67;;;10.70;99.90;;;;;;4156571;28;20042;-53
2024/04/04 05:52:37;;;;;;;2.67;1.30;;;10.70;99.90;;;;;;4159084;28;20507;-59
2024/04/04 05:54:39;;;;;;;3.60;1.83;;;10.80;99.90;;;;;;4159598;28;20103;-56
2024/04/04 05:56:40;;;;;;;2.20;1.20;;;10.70;99.90;;;;;;4160972;28;20068;-58
2024/04/04 05:58:43;;;;;;;2.77;1.40;;;10.80;99.90;;;;;;4162419;28;20083;-57
2024/04/04 06:00:44;;;;;;;2.53;1.60;;;10.80;99.90;;;;;;4161130;28;20041;-55
2024/04/04 06:02:46;;;;;;;6.70;1.57;;;10.80;99.90;;;;;;4163616;28;20034;-57
2024/04/04 06:04:47;;;;;;;2.17;1.40;;;10.80;99.90;;;;;;4159898;28;20060;-55
2024/04/04 06:06:48;;;;;;;2.47;0.83;;;10.90;99.90;;;;;;4171098;28;20132;-57
2024/04/04 06:08:50;;;;;;;2.20;1.00;;;10.90;99.90;;;;;;4163663;28;20104;-54
2024/04/04 06:10:51;;;;;;;2.10;1.50;;;10.90;99.90;;;;;;4163243;28;20053;-59
2024/04/04 06:12:53;;;;;;;4.10;1.53;;;10.90;99.90;;;;;;4172538;28;20493;-52
2024/04/04 06:14:54;;;;;;;3.97;1.20;;;11.00;99.90;;;;;;4160219;28;20046;-52
2024/04/04 06:16:55;;;;;;;2.50;1.30;;;11.00;99.90;;;;;;4161591;28;20096;-55
2024/04/04 06:18:56;;;;;;;3.03;1.33;;;11.00;99.90;;;;;;4169394;28;20117;-58
2024/04/04 06:20:58;;;;;;;5.90;1.83;;;11.00;99.90;;;;;;4158644;28;20119;-59
2024/04/04 06:22:59;;;;;;;5.77;1.73;;;11.10;99.90;;;;;;4161562;28;20055;-54
2024/04/04 06:25:00;;;;;;;2.53;1.77;;;11.10;99.90;;;;;;4171963;28;20057;-55
2024/04/04 06:27:01;;;;;;;4.03;2.43;;;11.10;99.90;;;;;;4164339;28;20374;-54
2024/04/04 06:29:03;;;;;;;6.60;3.10;;;11.10;99.90;;;;;;4164954;28;20046;-56
2024/04/04 06:31:04;;;;;;;8.10;4.73;;;11.20;99.90;;;;;;4170317;28;20037;-55
2024/04/04 06:33:06;;;;;;;11.07;4.30;;;11.20;99.90;;;;;;4156259;28;20045;-53
2024/04/04 06:35:07;;;;;;;8.00;4.90;;;11.20;99.90;;;;;;4157028;28;20637;-58
2024/04/04 06:37:08;;;;;;;12.40;7.20;;;11.30;99.90;;;;;;4160095;28;20041;-56
2024/04/04 06:39:12;;;;;;;7.50;4.53;;;11.30;99.90;;;;;;4158929;28;20131;-58
2024/04/04 06:41:13;;;;;;;4.13;2.40;;;11.40;99.90;;;;;;4159545;28;20046;-59
2024/04/04 06:43:14;;;;;;;4.30;2.97;;;11.40;99.90;;;;;;4162926;28;20044;-54
2024/04/04 06:45:16;;;;;;;3.83;1.90;;;11.40;99.90;;;;;;4175312;28;20036;-56
2024/04/04 06:47:17;;;;;;;8.73;2.80;;;11.40;99.90;;;;;;4162157;28;20059;-50
2024/04/04 06:49:18;;;;;;;4.80;2.70;;;11.40;99.90;;;;;;4158479;28;20047;-57
2024/04/04 06:51:21;;;;;;;3.67;2.43;;;11.40;99.90;;;;;;4159448;28;20064;-53
2024/04/04 06:53:25;;;;;;;4.03;2.13;;;11.40;99.90;;;;;;4123737;28;20096;-58
2024/04/04 06:55:26;;;;;;;3.50;2.10;;;11.50;99.90;;;;;;4140044;28;20428;-58
2024/04/04 06:57:28;;;;;;;3.63;2.37;;;11.40;99.90;;;;;;4156335;28;20072;-55
2024/04/04 06:59:29;;;;;;;6.83;2.27;;;11.50;99.90;;;;;;4156784;28;20045;-58
2024/04/04 07:01:31;;;;;;;1.37;1.10;;;11.50;99.90;;;;;;4159971;28;20049;-56
2024/04/04 07:03:33;;;;;;;3.33;1.20;;;11.50;99.90;;;;;;4163057;28;20127;-61
2024/04/04 07:05:34;;;;;;;3.03;1.37;;;11.50;99.90;;;;;;4164857;28;20067;-57
2024/04/04 07:07:36;;;;;;;4.17;1.33;;;11.50;99.90;;;;;;4158834;28;20045;-57
2024/04/04 07:09:37;;;;;;;1.83;1.20;;;11.50;99.90;;;;;;4159198;28;20037;-59
2024/04/04 07:11:39;;;;;;;7.67;1.80;;;11.60;99.90;;;;;;4158377;28;20033;-51
2024/04/04 07:13:41;;;;;;;4.63;1.60;;;11.60;99.90;;;;;;4160665;28;20106;-56
2024/04/04 07:15:42;;;;;;;6.33;1.23;;;11.60;99.90;;;;;;4147366;28;20436;-55
2024/04/04 07:17:44;;;;;;;5.87;2.13;;;11.50;99.90;;;;;;4158318;28;20045;-57
2024/04/04 07:19:45;;;;;;;4.00;1.80;;;11.50;99.90;;;;;;4158067;28;20083;-57
2024/04/04 07:21:46;;;;;;;4.67;1.47;;;11.50;99.90;;;;;;4160182;28;20080;-59
2024/04/04 07:23:47;;;;;;;6.33;1.93;;;11.50;99.90;;;;;;4159579;28;20509;-55
2024/04/04 07:25:55;;;;;;;2.00;1.80;;;11.50;99.90;;;;;;4137440;28;20099;-55
2024/04/04 07:27:56;;;;;;;4.83;2.53;;;11.50;99.90;;;;;;4124094;28;20092;-57
2024/04/04 07:29:58;;;;;;;3.80;1.93;;;11.50;99.90;;;;;;4167187;28;20041;-58
2024/04/04 07:31:59;;;;;;;4.30;2.00;;;11.50;99.90;;;;;;4161695;28;20409;-59
2024/04/04 07:34:01;;;;;;;5.07;2.43;;;11.60;99.90;;;;;;4160591;28;20057;-56
2024/04/04 07:36:03;;;;;;;3.20;1.37;;;11.50;99.90;;;;;;4167899;28;20117;-59
2024/04/04 07:38:08;;;;;;;3.60;1.33;;;11.50;99.90;;;;;;4162786;28;20030;-59
2024/04/04 07:40:09;;;;;;;3.57;1.63;;;11.40;99.90;;;;;;4155896;28;20179;-57
2024/04/04 07:42:10;;;;;;;3.80;1.50;;;11.50;99.90;;;;;;4156089;28;20519;-57
2024/04/04 07:44:12;;;;;;;4.47;1.20;;;11.60;99.90;;;;;;4161421;28;20045;-58
2024/04/04 07:46:14;;;;;;;5.27;1.13;;;11.60;99.90;;;;;;4157495;28;20086;-58
2024/04/04 07:48:17;;;;;;;4.47;1.60;;;11.70;99.90;;;;;;4154990;28;20092;-57
2024/04/04 07:50:20;;;;;;;5.90;1.80;;;11.70;99.90;;;;;;4155285;28;20144;-54
2024/04/04 07:52:21;;;;;;;1.23;0.70;;;11.80;99.90;;;;;;4155952;28;20032;-58
2024/04/04 07:54:22;;;;;;;3.07;0.80;;;11.90;99.90;;;;;;4159778;28;20091;-57
2024/04/04 07:56:24;;;;;;;5.40;1.00;;;12.00;99.90;;;;;;4153364;28;20111;-59
2024/04/04 07:58:26;;;;;;;2.73;0.63;;;12.20;99.90;;;;;;4152784;28;20507;-58
2024/04/04 08:00:27;;;;;;;2.67;0.83;;;12.30;99.90;;;;;;4157551;28;20036;-58
2024/04/04 08:02:29;;;;;;;1.73;0.90;;;12.50;99.90;;;;;;4161202;28;20037;-56
2024/04/04 08:04:31;;;;;;;2.43;1.57;;;12.60;99.90;;;;;;4161952;28;20083;-57
2024/04/04 08:06:33;;;;;;;1.23;0.40;;;12.50;99.90;;;;;;4159491;28;20025;-57
2024/04/04 08:08:34;;;;;;;2.60;1.03;;;12.50;99.90;;;;;;4159448;28;20053;-55
2024/04/04 08:10:35;;;;;;;2.33;0.83;;;12.40;99.90;;;;;;4164081;28;20087;-58
2024/04/04 08:12:37;;;;;;;1.80;0.80;;;12.40;99.90;;;;;;4155742;28;20485;-59
2024/04/04 08:14:38;;;;;;;1.63;0.50;;;12.50;99.90;;;;;;4164060;28;20439;-58
2024/04/04 08:16:40;;;;;;;2.67;0.50;;;12.50;99.90;;;;;;4156795;28;20056;-59
2024/04/04 08:18:41;;;;;;;1.47;0.80;;;12.50;99.90;;;;;;4160065;28;20072;-56
2024/04/04 08:20:46;;;;;;;1.07;0.33;;;12.40;99.90;;;;;;4163327;28;20058;-58
2024/04/04 08:22:49;;;;;;;1.77;0.40;;;12.40;99.90;;;;;;4161358;28;20052;-59
2024/04/04 08:24:51;;;;;;;1.53;0.50;;;12.30;99.90;;;;;;4161710;28;20065;-59
2024/04/04 08:26:52;;;;;;;2.57;0.50;;;12.30;99.90;;;;;;4159157;28;20096;-58
2024/04/04 08:28:53;;;;;;;1.43;0.70;;;12.20;99.90;;;;;;4162269;28;20021;-57
2024/04/04 08:30:59;;;;;;;1.50;0.77;;;12.10;99.90;;;;;;4158249;28;20038;-55
2024/04/04 08:33:00;;;;;;;3.27;1.00;;;12.00;99.90;;;;;;4161497;28;20046;-55
2024/04/04 08:35:01;;;;;;;2.57;1.07;;;12.00;99.90;;;;;;4162565;28;20442;-58
2024/04/04 08:37:03;;;;;;;2.33;1.03;;;11.80;99.90;;;;;;4162044;28;20018;-59
2024/04/04 08:39:04;;;;;;;3.87;1.13;;;11.80;99.90;;;;;;4158368;28;20037;-58
2024/04/04 08:41:07;;;;;;;3.73;0.83;;;11.80;99.90;;;;;;4157491;28;20042;-58
2024/04/04 08:43:09;;;;;;;3.03;0.80;;;11.70;99.90;;;;;;4156906;28;20045;-57
2024/04/04 08:45:15;;;;;;;6.60;1.33;;;11.70;99.90;;;;;;4163086;28;20041;-56
2024/04/04 08:47:18;;;;;;;3.07;1.10;;;11.70;99.90;;;;;;4158550;28;20045;-54
2024/04/04 08:49:21;;;;;;;3.93;1.30;;;11.70;99.90;;;;;;4162582;28;20088;-56
2024/04/04 08:51:22;;;;;;;4.37;1.60;;;11.60;99.90;;;;;;4159050;28;20037;-58
2024/04/04 08:53:27;;;;;;;2.53;1.40;;;11.70;99.90;;;;;;4163102;28;20063;-56
2024/04/04 08:55:28;;;;;;;2.80;1.27;;;11.60;99.90;;;;;;4166192;28;20045;-59
2024/04/04 08:57:33;;;;;;;3.70;2.00;;;11.70;99.90;;;;;;4147862;28;20041;-57
2024/04/04 08:59:34;;;;;;;3.73;1.43;;;11.70;99.90;;;;;;4160482;28;20147;-58
2024/04/04 09:01:35;;;;;;;1.60;0.97;;;11.80;99.90;;;;;;4154429;28;20081;-59
2024/04/04 09:03:42;;;;;;;2.00;1.00;;;11.90;99.90;;;;;;4159222;28;20618;-56
2024/04/04 09:05:44;;;;;;;1.97;1.10;;;11.90;99.90;;;;;;4162235;28;20095;-57
2024/04/04 09:07:45;;;;;;;2.10;0.90;;;12.00;99.90;;;;;;4145442;28;20505;-55
2024/04/04 09:09:47;;;;;;;4.10;0.80;;;12.00;99.90;;;;;;4147851;28;20115;-58
2024/04/04 09:11:49;;;;;;;3.07;1.37;;;12.00;99.90;;;;;;4152511;28;20045;-56
2024/04/04 09:14:01;;;;;;;3.67;1.10;;;12.00;99.90;;;;;;4153141;28;20038;-57
2024/04/04 09:16:03;;;;;;;5.40;1.07;;;12.10;99.90;;;;;;4159669;28;20033;-53
2024/04/04 09:18:05;;;;;;;2.33;0.97;;;12.10;99.90;;;;;;4147335;28;20042;-57
2024/04/04 09:20:10;;;;;;;4.03;1.20;;;12.20;99.90;;;;;;4161698;28;20033;-58
2024/04/04 09:22:12;;;;;;;2.50;1.10;;;12.10;99.90;;;;;;4161028;28;20030;-53
2024/04/04 09:24:18;;;;;;;4.00;1.20;;;12.20;99.90;;;;;;4162222;28;20103;-58
2024/04/04 09:26:19;;;;;;;3.10;1.00;;;12.30;99.90;;;;;;4156683;28;20088;-59
2024/04/04 09:28:21;;;;;;;3.17;0.83;;;12.30;99.90;;;;;;4149424;28;20099;-54
2024/04/04 09:30:25;;;;;;;3.10;1.20;;;12.30;99.90;;;;;;4160468;28;20095;-58
2024/04/04 09:32:27;;;;;;;4.30;2.50;;;12.30;99.90;;;;;;4155347;28;20532;-57
2024/04/04 09:34:29;;;;;;;2.73;1.40;;;12.20;99.90;;;;;;4160506;28;20030;-57
2024/04/04 09:36:33;;;;;;;5.20;1.63;;;12.20;99.90;;;;;;4161370;28;20029;-59
2024/04/04 09:38:34;;;;;;;4.83;1.77;;;12.10;99.90;;;;;;4163458;28;20088;-58
2024/04/04 09:40:37;;;;;;;6.53;1.80;;;12.10;99.90;;;;;;4161437;28;20448;-56
2024/04/04 09:42:41;;;;;;;5.10;1.67;;;12.00;99.90;;;;;;4161118;28;20030;-56
2024/04/04 09:44:42;;;;;;;4.13;1.90;;;12.00;99.90;;;;;;4161634;28;20042;-60
2024/04/04 09:46:46;;;;;;;3.33;1.60;;;12.00;99.90;;;;;;4154862;28;20128;-57
2024/04/04 09:48:48;;;;;;;4.67;2.00;;;12.00;99.90;;;;;;4145420;28;20378;-57
2024/04/04 09:50:50;;;;;;;3.53;2.10;;;12.00;99.90;;;;;;4145035;28;20509;-57
2024/04/04 09:52:51;;;;;;;2.63;1.63;;;12.10;99.90;;;;;;4155009;28;20042;-58
2024/04/04 09:54:55;;;;;;;3.73;1.87;;;12.10;99.90;;;;;;4161803;28;20531;-58
2024/04/04 09:56:57;;;;;;;4.50;2.00;;;12.10;99.90;;;;;;4158836;28;20045;-57
2024/04/04 09:58:58;;;;;;;5.03;1.57;;;12.00;99.90;;;;;;4160341;28;20575;-59
2024/04/04 10:01:20;;;;;;;2.93;1.83;;;12.00;99.90;;;;;;4160602;28;20033;-58
2024/04/04 10:03:23;;;;;;;6.60;2.43;;;12.10;99.90;;;;;;4160510;28;20049;-58
2024/04/04 10:05:35;;;;;;;1.87;1.53;;;12.10;99.90;;;;;;4159681;28;20041;-57
2024/04/04 10:07:37;;;;;;;4.10;1.83;;;12.10;99.90;;;;;;4156056;28;20138;-59
2024/04/04 10:09:40;;;;;;;5.70;2.00;;;12.10;99.90;;;;;;4159918;28;20057;-57
2024/04/04 10:11:42;;;;;;;1.77;1.23;;;12.20;99.90;;;;;;4161307;28;20037;-58
2024/04/04 10:13:51;;;;;;;5.10;2.10;;;12.20;99.90;;;;;;4160834;28;20026;-56
2024/04/04 10:15:56;;;;;;;4.65;1.90;;;12.20;99.90;;;;;;4145330;28;20449;-57
2024/04/04 10:17:57;;;;;;;4.03;1.63;;;12.30;99.90;;;;;;4144017;28;20045;-55
2024/04/04 10:19:58;;;;;;;5.40;1.63;;;12.30;99.90;;;;;;4145253;28;20129;-57
2024/04/04 10:21:59;;;;;;;2.50;1.80;;;12.40;99.90;;;;;;4148942;28;20042;-55
2024/04/04 10:24:04;;;;;;;5.27;2.20;;;12.40;99.90;;;;;;4161449;28;20044;-58
2024/04/04 10:26:07;;;;;;;3.43;1.83;;;12.30;99.90;;;;;;4160122;28;20037;-58
2024/04/04 10:28:09;;;;;;;6.17;2.33;;;12.30;99.90;;;;;;4160549;28;20471;-56
2024/04/04 10:30:10;;;;;;;3.33;1.80;;;12.30;99.90;;;;;;4158990;28;20444;-58
2024/04/04 10:32:12;;;;;;;7.03;2.57;;;12.20;99.90;;;;;;4160756;28;20155;-57
2024/04/04 10:34:14;;;;;;;9.20;2.73;;;12.20;99.90;;;;;;4160009;28;20079;-58
2024/04/04 10:36:15;;;;;;;2.97;1.97;;;12.20;99.90;;;;;;4159767;28;20054;-58
2024/04/04 10:38:16;;;;;;;3.50;1.93;;;12.10;99.90;;;;;;4144342;28;20517;-57